sensor_id;sensor_type;location;lat;lon;timestamp;pressure;altitude;pressure_sealevel;temperature;humidity
59110;BME280;44895;47.438;18.978;2023-04-24T00:00:14;99321.91;;;11.18;100.00
59110;BME280;44895;47.438;18.978;2023-04-24T00:03:19;99326.69;;;11.21;100.00
59110;BME280;44895;47.438;18.978;2023-04-24T00:06:24;99326.59;;;11.43;100.00
59110;BME280;44895;47.438;18.978;2023-04-24T00:09:27;99329.16;;;11.31;100.00
59110;BME280;44895;47.438;18.978;2023-04-24T00:12:31;99333.03;;;11.48;100.00
59110;BME280;44895;47.438;18.978;2023-04-24T00:15:35;99338.16;;;11.58;100.00
59110;BME280;44895;47.438;18.978;2023-04-24T00:18:39;99329.03;;;11.71;100.00
59110;BME280;44895;47.438;18.978;2023-04-24T00:21:43;99323.13;;;11.78;100.00
59110;BME280;44895;47.438;18.978;2023-04-24T00:24:47;99323.41;;;11.77;100.00
59110;BME280;44895;47.438;18.978;2023-04-24T00:27:51;99316.84;;;11.51;100.00
59110;BME280;44895;47.438;18.978;2023-04-24T00:30:54;99325.66;;;11.57;100.00
59110;BME280;44895;47.438;18.978;2023-04-24T00:33:58;99333.66;;;11.62;100.00
59110;BME280;44895;47.438;18.978;2023-04-24T00:37:02;99317.97;;;11.77;100.00
59110;BME280;44895;47.438;18.978;2023-04-24T00:40:06;99319.25;;;11.88;100.00
59110;BME280;44895;47.438;18.978;2023-04-24T00:43:10;99316.88;;;11.95;100.00
59110;BME280;44895;47.438;18.978;2023-04-24T00:46:13;99305.34;;;11.98;100.00
59110;BME280;44895;47.438;18.978;2023-04-24T00:49:18;99298.16;;;11.85;100.00
59110;BME280;44895;47.438;18.978;2023-04-24T00:52:22;99301.19;;;11.83;100.00
59110;BME280;44895;47.438;18.978;2023-04-24T00:55:27;99296.22;;;12.12;100.00
59110;BME280;44895;47.438;18.978;2023-04-24T00:58:31;99296.38;;;12.06;100.00
59110;BME280;44895;47.438;18.978;2023-04-24T01:01:35;99294.47;;;11.98;100.00
59110;BME280;44895;47.438;18.978;2023-04-24T01:04:40;99297.00;;;12.21;100.00
59110;BME280;44895;47.438;18.978;2023-04-24T01:07:45;99289.66;;;12.21;100.00
59110;BME280;44895;47.438;18.978;2023-04-24T01:10:52;99295.34;;;12.37;100.00
59110;BME280;44895;47.438;18.978;2023-04-24T01:13:57;99303.50;;;12.46;100.00
59110;BME280;44895;47.438;18.978;2023-04-24T01:17:00;99292.13;;;12.53;100.00
59110;BME280;44895;47.438;18.978;2023-04-24T01:20:05;99295.00;;;12.56;100.00
59110;BME280;44895;47.438;18.978;2023-04-24T01:23:09;99286.94;;;12.60;100.00
59110;BME280;44895;47.438;18.978;2023-04-24T01:26:16;99278.16;;;12.63;100.00
59110;BME280;44895;47.438;18.978;2023-04-24T01:29:21;99272.22;;;12.61;100.00
59110;BME280;44895;47.438;18.978;2023-04-24T01:32:25;99258.06;;;12.68;100.00
59110;BME280;44895;47.438;18.978;2023-04-24T01:35:30;99254.91;;;12.66;100.00
59110;BME280;44895;47.438;18.978;2023-04-24T01:38:33;99239.47;;;12.70;100.00
59110;BME280;44895;47.438;18.978;2023-04-24T01:41:37;99249.13;;;12.67;100.00
59110;BME280;44895;47.438;18.978;2023-04-24T01:44:42;99245.34;;;12.51;100.00
59110;BME280;44895;47.438;18.978;2023-04-24T01:47:45;99239.75;;;12.47;100.00
59110;BME280;44895;47.438;18.978;2023-04-24T01:50:49;99243.56;;;12.55;100.00
59110;BME280;44895;47.438;18.978;2023-04-24T01:53:53;99245.59;;;12.67;100.00
59110;BME280;44895;47.438;18.978;2023-04-24T01:56:57;99236.44;;;12.71;100.00
59110;BME280;44895;47.438;18.978;2023-04-24T02:00:01;99218.47;;;12.70;100.00
59110;BME280;44895;47.438;18.978;2023-04-24T02:03:16;99219.00;;;12.64;100.00
59110;BME280;44895;47.438;18.978;2023-04-24T02:06:20;99214.38;;;12.64;100.00
59110;BME280;44895;47.438;18.978;2023-04-24T02:09:24;99213.44;;;12.51;100.00
59110;BME280;44895;47.438;18.978;2023-04-24T02:12:28;99213.09;;;12.62;100.00
59110;BME280;44895;47.438;18.978;2023-04-24T02:15:32;99210.50;;;12.65;100.00
59110;BME280;44895;47.438;18.978;2023-04-24T02:18:36;99219.38;;;12.53;100.00
59110;BME280;44895;47.438;18.978;2023-04-24T02:21:40;99205.47;;;12.46;100.00
59110;BME280;44895;47.438;18.978;2023-04-24T02:24:45;99215.28;;;12.38;100.00
59110;BME280;44895;47.438;18.978;2023-04-24T02:27:52;99213.25;;;12.27;100.00
59110;BME280;44895;47.438;18.978;2023-04-24T02:30:56;99207.47;;;12.28;100.00
59110;BME280;44895;47.438;18.978;2023-04-24T02:33:59;99206.38;;;12.20;100.00
59110;BME280;44895;47.438;18.978;2023-04-24T02:37:03;99205.59;;;12.20;100.00
59110;BME280;44895;47.438;18.978;2023-04-24T02:40:07;99203.66;;;12.20;100.00
59110;BME280;44895;47.438;18.978;2023-04-24T02:43:11;99197.00;;;12.00;100.00
59110;BME280;44895;47.438;18.978;2023-04-24T02:46:15;99191.84;;;12.07;100.00
59110;BME280;44895;47.438;18.978;2023-04-24T02:49:19;99203.28;;;11.74;100.00
59110;BME280;44895;47.438;18.978;2023-04-24T02:52:23;99213.97;;;11.97;100.00
59110;BME280;44895;47.438;18.978;2023-04-24T02:55:27;99200.16;;;12.11;100.00
59110;BME280;44895;47.438;18.978;2023-04-24T02:58:30;99193.88;;;12.19;100.00
59110;BME280;44895;47.438;18.978;2023-04-24T03:01:35;99198.22;;;12.20;100.00
59110;BME280;44895;47.438;18.978;2023-04-24T03:04:38;99189.59;;;12.10;100.00
59110;BME280;44895;47.438;18.978;2023-04-24T03:07:43;99187.19;;;12.08;100.00
59110;BME280;44895;47.438;18.978;2023-04-24T03:10:47;99185.50;;;11.68;100.00
59110;BME280;44895;47.438;18.978;2023-04-24T03:13:52;99186.47;;;11.72;100.00
59110;BME280;44895;47.438;18.978;2023-04-24T03:16:56;99185.63;;;11.89;100.00
59110;BME280;44895;47.438;18.978;2023-04-24T03:20:01;99183.06;;;12.02;100.00
59110;BME280;44895;47.438;18.978;2023-04-24T03:23:06;99188.19;;;12.03;100.00
59110;BME280;44895;47.438;18.978;2023-04-24T03:26:10;99191.59;;;11.65;100.00
59110;BME280;44895;47.438;18.978;2023-04-24T03:29:23;99185.97;;;11.79;100.00
59110;BME280;44895;47.438;18.978;2023-04-24T03:32:27;99185.66;;;11.81;100.00
59110;BME280;44895;47.438;18.978;2023-04-24T03:35:31;99187.75;;;11.66;100.00
59110;BME280;44895;47.438;18.978;2023-04-24T03:38:38;99188.22;;;11.68;100.00
59110;BME280;44895;47.438;18.978;2023-04-24T03:41:59;99177.00;;;11.79;100.00
59110;BME280;44895;47.438;18.978;2023-04-24T03:45:14;99173.34;;;11.74;100.00
59110;BME280;44895;47.438;18.978;2023-04-24T03:48:21;99184.84;;;11.71;100.00
59110;BME280;44895;47.438;18.978;2023-04-24T03:51:25;99179.25;;;11.68;100.00
59110;BME280;44895;47.438;18.978;2023-04-24T03:54:33;99168.53;;;11.71;100.00
59110;BME280;44895;47.438;18.978;2023-04-24T03:57:37;99170.97;;;11.64;100.00
59110;BME280;44895;47.438;18.978;2023-04-24T04:00:50;99169.81;;;11.65;100.00
59110;BME280;44895;47.438;18.978;2023-04-24T04:04:30;99162.63;;;11.69;100.00
59110;BME280;44895;47.438;18.978;2023-04-24T04:07:33;99181.03;;;11.55;100.00
59110;BME280;44895;47.438;18.978;2023-04-24T04:10:37;99186.03;;;11.53;100.00
59110;BME280;44895;47.438;18.978;2023-04-24T04:13:42;99201.00;;;11.85;100.00
59110;BME280;44895;47.438;18.978;2023-04-24T04:16:45;99196.66;;;11.84;100.00
59110;BME280;44895;47.438;18.978;2023-04-24T04:19:50;99183.56;;;11.78;100.00
59110;BME280;44895;47.438;18.978;2023-04-24T04:22:53;99168.38;;;11.68;100.00
59110;BME280;44895;47.438;18.978;2023-04-24T04:26:06;99167.56;;;11.76;100.00
59110;BME280;44895;47.438;18.978;2023-04-24T04:29:25;99180.31;;;12.02;100.00
59110;BME280;44895;47.438;18.978;2023-04-24T04:32:32;99189.44;;;12.15;100.00
59110;BME280;44895;47.438;18.978;2023-04-24T04:35:40;99186.72;;;12.15;100.00
59110;BME280;44895;47.438;18.978;2023-04-24T04:38:45;99185.88;;;12.23;100.00
59110;BME280;44895;47.438;18.978;2023-04-24T04:42:00;99176.41;;;12.29;100.00
59110;BME280;44895;47.438;18.978;2023-04-24T04:45:10;99176.44;;;12.20;100.00
59110;BME280;44895;47.438;18.978;2023-04-24T04:48:27;99174.94;;;12.32;100.00
59110;BME280;44895;47.438;18.978;2023-04-24T04:51:34;99174.16;;;12.31;100.00
59110;BME280;44895;47.438;18.978;2023-04-24T04:54:38;99168.19;;;12.38;100.00
59110;BME280;44895;47.438;18.978;2023-04-24T04:57:42;99172.56;;;12.30;100.00
59110;BME280;44895;47.438;18.978;2023-04-24T05:00:45;99171.50;;;12.44;100.00
59110;BME280;44895;47.438;18.978;2023-04-24T05:03:59;99169.28;;;12.46;100.00
59110;BME280;44895;47.438;18.978;2023-04-24T05:07:03;99163.19;;;12.40;100.00
59110;BME280;44895;47.438;18.978;2023-04-24T05:10:10;99156.44;;;12.46;100.00
59110;BME280;44895;47.438;18.978;2023-04-24T05:13:14;99167.44;;;12.59;100.00
59110;BME280;44895;47.438;18.978;2023-04-24T05:16:19;99167.59;;;12.62;100.00
59110;BME280;44895;47.438;18.978;2023-04-24T05:19:24;99163.81;;;12.76;100.00
59110;BME280;44895;47.438;18.978;2023-04-24T05:22:28;99170.94;;;12.89;100.00
59110;BME280;44895;47.438;18.978;2023-04-24T05:25:33;99169.75;;;12.99;100.00
59110;BME280;44895;47.438;18.978;2023-04-24T05:28:44;99176.47;;;13.01;100.00
59110;BME280;44895;47.438;18.978;2023-04-24T05:31:49;99169.94;;;12.94;100.00
59110;BME280;44895;47.438;18.978;2023-04-24T05:34:53;99169.88;;;13.02;100.00
59110;BME280;44895;47.438;18.978;2023-04-24T05:37:56;99173.53;;;13.07;100.00
59110;BME280;44895;47.438;18.978;2023-04-24T05:41:00;99170.22;;;13.01;100.00
59110;BME280;44895;47.438;18.978;2023-04-24T05:44:04;99170.47;;;13.08;100.00
59110;BME280;44895;47.438;18.978;2023-04-24T05:47:08;99175.88;;;13.17;100.00
59110;BME280;44895;47.438;18.978;2023-04-24T05:50:12;99173.00;;;13.34;100.00
59110;BME280;44895;47.438;18.978;2023-04-24T05:53:16;99170.88;;;13.40;100.00
59110;BME280;44895;47.438;18.978;2023-04-24T05:56:20;99168.22;;;13.52;100.00
59110;BME280;44895;47.438;18.978;2023-04-24T05:59:26;99171.97;;;13.48;100.00
59110;BME280;44895;47.438;18.978;2023-04-24T06:02:30;99178.69;;;13.50;100.00
59110;BME280;44895;47.438;18.978;2023-04-24T06:05:37;99185.19;;;13.58;100.00
59110;BME280;44895;47.438;18.978;2023-04-24T06:08:41;99177.13;;;13.74;100.00
59110;BME280;44895;47.438;18.978;2023-04-24T06:11:45;99175.22;;;14.82;100.00
59110;BME280;44895;47.438;18.978;2023-04-24T06:14:51;99187.97;;;14.66;100.00
59110;BME280;44895;47.438;18.978;2023-04-24T06:17:59;99188.91;;;13.87;100.00
59110;BME280;44895;47.438;18.978;2023-04-24T06:21:03;99191.69;;;13.66;100.00
59110;BME280;44895;47.438;18.978;2023-04-24T06:24:07;99197.38;;;13.40;100.00
59110;BME280;44895;47.438;18.978;2023-04-24T06:27:11;99189.69;;;13.54;100.00
59110;BME280;44895;47.438;18.978;2023-04-24T06:30:17;99187.50;;;13.26;100.00
59110;BME280;44895;47.438;18.978;2023-04-24T06:33:21;99186.94;;;13.42;100.00
59110;BME280;44895;47.438;18.978;2023-04-24T06:36:26;99183.03;;;13.64;100.00
59110;BME280;44895;47.438;18.978;2023-04-24T06:39:31;99185.94;;;13.80;100.00
59110;BME280;44895;47.438;18.978;2023-04-24T06:42:35;99182.28;;;13.76;100.00
59110;BME280;44895;47.438;18.978;2023-04-24T06:45:40;99185.66;;;13.73;100.00
59110;BME280;44895;47.438;18.978;2023-04-24T06:48:44;99175.38;;;13.91;100.00
59110;BME280;44895;47.438;18.978;2023-04-24T06:51:47;99167.88;;;14.12;100.00
59110;BME280;44895;47.438;18.978;2023-04-24T06:54:52;99159.97;;;14.44;100.00
59110;BME280;44895;47.438;18.978;2023-04-24T06:57:55;99175.50;;;14.07;100.00
59110;BME280;44895;47.438;18.978;2023-04-24T07:00:59;99167.19;;;14.03;100.00
59110;BME280;44895;47.438;18.978;2023-04-24T07:04:02;99161.25;;;13.76;100.00
59110;BME280;44895;47.438;18.978;2023-04-24T07:07:06;99168.59;;;13.63;100.00
59110;BME280;44895;47.438;18.978;2023-04-24T07:10:11;99166.31;;;13.65;100.00
59110;BME280;44895;47.438;18.978;2023-04-24T07:13:14;99166.94;;;13.50;100.00
59110;BME280;44895;47.438;18.978;2023-04-24T07:16:18;99182.94;;;13.39;100.00
59110;BME280;44895;47.438;18.978;2023-04-24T07:19:22;99164.44;;;13.45;100.00
59110;BME280;44895;47.438;18.978;2023-04-24T07:22:26;99164.88;;;13.26;100.00
59110;BME280;44895;47.438;18.978;2023-04-24T07:25:29;99161.47;;;13.71;100.00
59110;BME280;44895;47.438;18.978;2023-04-24T07:28:33;99152.06;;;13.93;100.00
59110;BME280;44895;47.438;18.978;2023-04-24T07:31:37;99156.88;;;14.09;100.00
59110;BME280;44895;47.438;18.978;2023-04-24T07:34:41;99154.03;;;14.42;100.00
59110;BME280;44895;47.438;18.978;2023-04-24T07:37:45;99149.38;;;14.80;100.00
59110;BME280;44895;47.438;18.978;2023-04-24T07:40:49;99159.34;;;15.00;100.00
59110;BME280;44895;47.438;18.978;2023-04-24T07:43:52;99156.22;;;15.71;100.00
59110;BME280;44895;47.438;18.978;2023-04-24T07:46:57;99172.28;;;15.16;100.00
59110;BME280;44895;47.438;18.978;2023-04-24T07:50:00;99169.28;;;15.62;100.00
59110;BME280;44895;47.438;18.978;2023-04-24T07:53:04;99169.16;;;16.51;100.00
59110;BME280;44895;47.438;18.978;2023-04-24T07:56:08;99177.34;;;16.67;100.00
59110;BME280;44895;47.438;18.978;2023-04-24T07:59:11;99169.00;;;16.43;100.00
59110;BME280;44895;47.438;18.978;2023-04-24T08:02:15;99166.72;;;16.81;100.00
59110;BME280;44895;47.438;18.978;2023-04-24T08:05:19;99159.19;;;17.53;100.00
59110;BME280;44895;47.438;18.978;2023-04-24T08:08:23;99162.31;;;16.76;100.00
59110;BME280;44895;47.438;18.978;2023-04-24T08:11:27;99147.44;;;16.10;100.00
59110;BME280;44895;47.438;18.978;2023-04-24T08:14:31;99154.34;;;16.04;100.00
59110;BME280;44895;47.438;18.978;2023-04-24T08:17:35;99155.03;;;16.17;100.00
59110;BME280;44895;47.438;18.978;2023-04-24T08:20:39;99150.34;;;16.17;100.00
59110;BME280;44895;47.438;18.978;2023-04-24T08:23:43;99153.47;;;16.32;100.00
59110;BME280;44895;47.438;18.978;2023-04-24T08:26:47;99159.19;;;16.26;100.00
59110;BME280;44895;47.438;18.978;2023-04-24T08:29:54;99154.88;;;16.09;100.00
59110;BME280;44895;47.438;18.978;2023-04-24T08:32:58;99144.78;;;16.29;100.00
59110;BME280;44895;47.438;18.978;2023-04-24T08:36:03;99148.31;;;16.30;100.00
59110;BME280;44895;47.438;18.978;2023-04-24T08:39:07;99153.34;;;16.12;100.00
59110;BME280;44895;47.438;18.978;2023-04-24T08:42:11;99154.41;;;16.23;100.00
59110;BME280;44895;47.438;18.978;2023-04-24T08:45:16;99149.34;;;16.41;100.00
59110;BME280;44895;47.438;18.978;2023-04-24T08:48:20;99155.88;;;16.69;100.00
59110;BME280;44895;47.438;18.978;2023-04-24T08:51:26;99159.19;;;16.78;100.00
59110;BME280;44895;47.438;18.978;2023-04-24T08:54:31;99151.59;;;16.87;100.00
59110;BME280;44895;47.438;18.978;2023-04-24T08:57:35;99151.50;;;17.19;100.00
59110;BME280;44895;47.438;18.978;2023-04-24T09:00:42;99149.72;;;17.50;100.00
59110;BME280;44895;47.438;18.978;2023-04-24T09:03:51;99143.78;;;16.89;100.00
59110;BME280;44895;47.438;18.978;2023-04-24T09:06:58;99135.38;;;16.82;100.00
59110;BME280;44895;47.438;18.978;2023-04-24T09:10:02;99142.22;;;17.90;100.00
59110;BME280;44895;47.438;18.978;2023-04-24T09:13:06;99137.16;;;17.49;100.00
59110;BME280;44895;47.438;18.978;2023-04-24T09:16:13;99141.94;;;17.95;100.00
59110;BME280;44895;47.438;18.978;2023-04-24T09:19:17;99130.91;;;17.72;100.00
59110;BME280;44895;47.438;18.978;2023-04-24T09:22:21;99129.16;;;17.83;100.00
59110;BME280;44895;47.438;18.978;2023-04-24T09:25:32;99130.16;;;18.18;100.00
59110;BME280;44895;47.438;18.978;2023-04-24T09:28:38;99131.19;;;18.09;100.00
59110;BME280;44895;47.438;18.978;2023-04-24T09:31:42;99127.97;;;18.04;100.00
59110;BME280;44895;47.438;18.978;2023-04-24T09:34:47;99121.16;;;17.74;100.00
59110;BME280;44895;47.438;18.978;2023-04-24T09:37:51;99114.91;;;17.97;100.00
59110;BME280;44895;47.438;18.978;2023-04-24T09:40:55;99125.25;;;17.84;100.00
59110;BME280;44895;47.438;18.978;2023-04-24T09:44:16;99119.97;;;17.52;100.00
59110;BME280;44895;47.438;18.978;2023-04-24T09:47:20;99115.25;;;17.72;100.00
59110;BME280;44895;47.438;18.978;2023-04-24T09:50:24;99120.91;;;17.83;100.00
59110;BME280;44895;47.438;18.978;2023-04-24T09:53:28;99107.22;;;18.06;100.00
59110;BME280;44895;47.438;18.978;2023-04-24T09:56:34;99105.13;;;18.00;100.00
59110;BME280;44895;47.438;18.978;2023-04-24T09:59:42;99102.63;;;18.14;100.00
59110;BME280;44895;47.438;18.978;2023-04-24T10:02:54;99107.72;;;17.69;100.00
59110;BME280;44895;47.438;18.978;2023-04-24T10:05:59;99113.34;;;17.53;100.00
59110;BME280;44895;47.438;18.978;2023-04-24T10:09:03;99109.56;;;17.85;100.00
59110;BME280;44895;47.438;18.978;2023-04-24T10:12:07;99109.72;;;18.15;100.00
59110;BME280;44895;47.438;18.978;2023-04-24T10:15:12;99118.31;;;18.14;100.00
59110;BME280;44895;47.438;18.978;2023-04-24T10:18:17;99109.38;;;17.74;100.00
59110;BME280;44895;47.438;18.978;2023-04-24T10:21:22;99099.44;;;17.89;100.00
59110;BME280;44895;47.438;18.978;2023-04-24T10:24:26;99107.31;;;17.90;100.00
59110;BME280;44895;47.438;18.978;2023-04-24T10:27:31;99098.00;;;17.95;100.00
59110;BME280;44895;47.438;18.978;2023-04-24T10:30:35;99093.28;;;18.46;100.00
59110;BME280;44895;47.438;18.978;2023-04-24T10:33:43;99105.59;;;18.29;100.00
59110;BME280;44895;47.438;18.978;2023-04-24T10:36:51;99103.09;;;18.20;100.00
59110;BME280;44895;47.438;18.978;2023-04-24T10:39:55;99094.16;;;18.26;100.00
59110;BME280;44895;47.438;18.978;2023-04-24T10:43:02;99099.81;;;18.11;100.00
59110;BME280;44895;47.438;18.978;2023-04-24T10:46:06;99090.00;;;18.36;100.00
59110;BME280;44895;47.438;18.978;2023-04-24T10:49:10;99098.50;;;18.54;100.00
59110;BME280;44895;47.438;18.978;2023-04-24T10:52:14;99090.28;;;17.81;100.00
59110;BME280;44895;47.438;18.978;2023-04-24T10:58:51;99073.13;;;18.38;100.00
59110;BME280;44895;47.438;18.978;2023-04-24T11:01:56;99074.72;;;18.39;100.00
59110;BME280;44895;47.438;18.978;2023-04-24T11:05:03;99080.94;;;18.63;100.00
59110;BME280;44895;47.438;18.978;2023-04-24T11:08:14;99082.88;;;18.32;100.00
59110;BME280;44895;47.438;18.978;2023-04-24T11:11:19;99065.75;;;18.42;100.00
59110;BME280;44895;47.438;18.978;2023-04-24T11:14:25;99061.19;;;18.53;100.00
59110;BME280;44895;47.438;18.978;2023-04-24T11:17:32;99061.84;;;18.73;100.00
59110;BME280;44895;47.438;18.978;2023-04-24T11:20:42;99055.13;;;19.01;100.00
59110;BME280;44895;47.438;18.978;2023-04-24T11:23:45;99059.78;;;18.67;100.00
59110;BME280;44895;47.438;18.978;2023-04-24T11:26:54;99057.84;;;18.98;100.00
59110;BME280;44895;47.438;18.978;2023-04-24T11:30:03;99047.81;;;19.16;100.00
59110;BME280;44895;47.438;18.978;2023-04-24T11:33:06;99054.03;;;19.47;98.60
59110;BME280;44895;47.438;18.978;2023-04-24T11:36:10;99035.38;;;19.71;91.62
59110;BME280;44895;47.438;18.978;2023-04-24T11:39:14;99043.38;;;19.42;90.47
59110;BME280;44895;47.438;18.978;2023-04-24T11:42:19;99037.25;;;19.63;85.41
59110;BME280;44895;47.438;18.978;2023-04-24T11:45:25;99039.91;;;19.52;85.60
59110;BME280;44895;47.438;18.978;2023-04-24T11:48:29;99032.25;;;19.31;87.43
59110;BME280;44895;47.438;18.978;2023-04-24T11:51:32;99036.81;;;19.16;91.21
59110;BME280;44895;47.438;18.978;2023-04-24T11:54:37;99032.81;;;19.10;93.04
59110;BME280;44895;47.438;18.978;2023-04-24T11:57:46;99024.13;;;19.49;91.77
59110;BME280;44895;47.438;18.978;2023-04-24T12:00:57;99021.63;;;19.78;95.93
59110;BME280;44895;47.438;18.978;2023-04-24T12:04:04;99015.75;;;19.80;93.70
59110;BME280;44895;47.438;18.978;2023-04-24T12:07:08;99000.22;;;19.53;87.42
59110;BME280;44895;47.438;18.978;2023-04-24T12:10:13;99014.91;;;19.27;86.77
59110;BME280;44895;47.438;18.978;2023-04-24T12:13:18;99005.78;;;19.19;92.86
59110;BME280;44895;47.438;18.978;2023-04-24T12:16:22;99014.66;;;19.02;96.25
59110;BME280;44895;47.438;18.978;2023-04-24T12:19:29;98996.81;;;19.26;100.00
59110;BME280;44895;47.438;18.978;2023-04-24T12:22:50;99006.31;;;19.32;100.00
59110;BME280;44895;47.438;18.978;2023-04-24T12:25:59;98995.34;;;19.36;100.00
59110;BME280;44895;47.438;18.978;2023-04-24T12:29:04;98988.16;;;19.28;100.00
59110;BME280;44895;47.438;18.978;2023-04-24T12:32:16;98994.22;;;19.03;100.00
59110;BME280;44895;47.438;18.978;2023-04-24T12:35:21;98997.13;;;18.83;100.00
59110;BME280;44895;47.438;18.978;2023-04-24T12:38:27;98998.22;;;19.13;100.00
59110;BME280;44895;47.438;18.978;2023-04-24T12:41:32;98988.16;;;19.28;100.00
59110;BME280;44895;47.438;18.978;2023-04-24T12:44:36;98986.56;;;19.27;89.86
59110;BME280;44895;47.438;18.978;2023-04-24T12:47:41;98984.44;;;19.05;77.95
59110;BME280;44895;47.438;18.978;2023-04-24T12:50:45;98986.22;;;18.90;79.39
59110;BME280;44895;47.438;18.978;2023-04-24T12:53:49;98978.13;;;18.71;99.24
59110;BME280;44895;47.438;18.978;2023-04-24T12:56:53;98993.53;;;18.45;100.00
59110;BME280;44895;47.438;18.978;2023-04-24T12:59:58;98975.66;;;18.28;100.00
59110;BME280;44895;47.438;18.978;2023-04-24T13:03:02;98984.53;;;18.18;100.00
59110;BME280;44895;47.438;18.978;2023-04-24T13:06:06;98975.09;;;18.15;100.00
59110;BME280;44895;47.438;18.978;2023-04-24T13:09:09;98973.75;;;17.79;100.00
59110;BME280;44895;47.438;18.978;2023-04-24T13:12:13;98975.34;;;17.56;100.00
59110;BME280;44895;47.438;18.978;2023-04-24T13:15:18;98975.78;;;17.35;100.00
59110;BME280;44895;47.438;18.978;2023-04-24T13:18:21;98972.72;;;17.17;100.00
59110;BME280;44895;47.438;18.978;2023-04-24T13:21:25;98976.44;;;17.05;100.00
59110;BME280;44895;47.438;18.978;2023-04-24T13:24:30;98967.72;;;17.00;100.00
59110;BME280;44895;47.438;18.978;2023-04-24T13:27:34;98968.44;;;16.77;100.00
59110;BME280;44895;47.438;18.978;2023-04-24T13:30:38;98959.22;;;16.85;100.00
59110;BME280;44895;47.438;18.978;2023-04-24T13:33:41;98967.59;;;16.92;100.00
59110;BME280;44895;47.438;18.978;2023-04-24T13:36:45;98968.59;;;17.04;100.00
59110;BME280;44895;47.438;18.978;2023-04-24T13:39:49;98978.44;;;17.08;100.00
59110;BME280;44895;47.438;18.978;2023-04-24T13:42:53;98982.72;;;17.06;100.00
59110;BME280;44895;47.438;18.978;2023-04-24T13:45:56;98994.22;;;17.35;100.00
59110;BME280;44895;47.438;18.978;2023-04-24T13:49:02;98992.75;;;17.18;100.00
59110;BME280;44895;47.438;18.978;2023-04-24T13:52:07;98993.81;;;17.13;100.00
59110;BME280;44895;47.438;18.978;2023-04-24T13:55:10;99005.59;;;16.74;100.00
59110;BME280;44895;47.438;18.978;2023-04-24T13:58:14;99001.28;;;16.54;100.00
59110;BME280;44895;47.438;18.978;2023-04-24T14:01:18;99004.41;;;16.17;100.00
59110;BME280;44895;47.438;18.978;2023-04-24T14:04:22;99004.50;;;16.20;100.00
59110;BME280;44895;47.438;18.978;2023-04-24T14:07:25;99012.00;;;16.07;100.00
59110;BME280;44895;47.438;18.978;2023-04-24T14:10:29;99013.53;;;15.73;100.00
59110;BME280;44895;47.438;18.978;2023-04-24T14:13:35;99013.38;;;15.97;100.00
59110;BME280;44895;47.438;18.978;2023-04-24T14:16:39;99013.56;;;16.24;100.00
59110;BME280;44895;47.438;18.978;2023-04-24T14:19:43;99010.72;;;16.37;100.00
59110;BME280;44895;47.438;18.978;2023-04-24T14:22:47;99001.72;;;16.56;100.00
59110;BME280;44895;47.438;18.978;2023-04-24T14:25:50;99012.75;;;16.59;100.00
59110;BME280;44895;47.438;18.978;2023-04-24T14:28:55;99009.34;;;16.66;100.00
59110;BME280;44895;47.438;18.978;2023-04-24T14:31:59;98999.09;;;16.43;100.00
59110;BME280;44895;47.438;18.978;2023-04-24T14:35:03;99002.78;;;16.51;100.00
59110;BME280;44895;47.438;18.978;2023-04-24T14:38:07;98991.69;;;16.63;100.00
59110;BME280;44895;47.438;18.978;2023-04-24T14:41:11;99009.13;;;16.55;100.00
59110;BME280;44895;47.438;18.978;2023-04-24T14:44:15;99001.41;;;16.41;100.00
59110;BME280;44895;47.438;18.978;2023-04-24T14:47:19;99003.84;;;16.46;100.00
59110;BME280;44895;47.438;18.978;2023-04-24T14:50:25;99005.22;;;16.37;100.00
59110;BME280;44895;47.438;18.978;2023-04-24T14:53:31;99016.69;;;16.07;100.00
59110;BME280;44895;47.438;18.978;2023-04-24T14:56:35;99009.91;;;16.36;100.00
59110;BME280;44895;47.438;18.978;2023-04-24T14:59:39;99006.09;;;16.41;100.00
59110;BME280;44895;47.438;18.978;2023-04-24T15:02:42;99002.13;;;16.38;100.00
59110;BME280;44895;47.438;18.978;2023-04-24T15:05:48;99011.69;;;16.28;100.00
59110;BME280;44895;47.438;18.978;2023-04-24T15:08:51;99017.72;;;16.18;100.00
59110;BME280;44895;47.438;18.978;2023-04-24T15:11:55;99011.88;;;16.00;100.00
59110;BME280;44895;47.438;18.978;2023-04-24T15:14:59;99012.38;;;16.06;100.00
59110;BME280;44895;47.438;18.978;2023-04-24T15:18:04;99011.81;;;16.16;100.00
59110;BME280;44895;47.438;18.978;2023-04-24T15:21:08;99002.09;;;16.19;100.00
59110;BME280;44895;47.438;18.978;2023-04-24T15:24:11;99009.00;;;16.12;100.00
59110;BME280;44895;47.438;18.978;2023-04-24T15:27:15;99010.81;;;15.89;100.00
59110;BME280;44895;47.438;18.978;2023-04-24T15:30:19;99005.34;;;15.89;100.00
59110;BME280;44895;47.438;18.978;2023-04-24T15:33:23;99009.72;;;15.93;100.00
59110;BME280;44895;47.438;18.978;2023-04-24T15:36:26;99012.47;;;15.61;100.00
59110;BME280;44895;47.438;18.978;2023-04-24T15:39:30;99015.75;;;15.51;100.00
59110;BME280;44895;47.438;18.978;2023-04-24T15:42:34;99009.53;;;15.54;100.00
59110;BME280;44895;47.438;18.978;2023-04-24T15:45:38;99009.19;;;15.40;100.00
59110;BME280;44895;47.438;18.978;2023-04-24T15:48:42;99013.63;;;15.44;100.00
59110;BME280;44895;47.438;18.978;2023-04-24T15:51:46;99009.47;;;15.35;100.00
59110;BME280;44895;47.438;18.978;2023-04-24T15:54:49;99008.13;;;15.28;100.00
59110;BME280;44895;47.438;18.978;2023-04-24T15:57:53;99011.59;;;15.25;100.00